createdAt,value
2023-02-23T00:03:17.353Z,100135.09
2023-02-23T00:13:20.836Z,100133.94
2023-02-23T00:23:23.663Z,100129.03
2023-02-23T00:33:27.880Z,100128.09
2023-02-23T00:43:30.221Z,100119.50
2023-02-23T00:53:32.550Z,100120.00
2023-02-23T01:03:36.857Z,100129.63
2023-02-23T01:13:40.158Z,100125.41
2023-02-23T01:23:42.498Z,100131.13
2023-02-23T01:33:44.891Z,100127.97
2023-02-23T01:44:00.676Z,100117.38
2023-02-23T01:54:16.327Z,100119.84
2023-02-23T02:04:20.281Z,100113.88
2023-02-23T02:14:30.829Z,100105.06
2023-02-23T02:25:11.244Z,100108.59
2023-02-23T02:35:51.590Z,100111.63
2023-02-23T02:46:08.710Z,100111.84
2023-02-23T02:56:11.805Z,100095.63
2023-02-23T03:06:33.325Z,100092.91
2023-02-23T03:17:23.615Z,100095.91
2023-02-23T03:27:48.587Z,100097.38
2023-02-23T03:38:25.710Z,100096.47
2023-02-23T03:48:47.196Z,100106.16
2023-02-23T03:59:14.786Z,100100.97
2023-02-23T04:09:35.574Z,100103.44
2023-02-23T04:19:38.000Z,100105.44
2023-02-23T04:29:40.658Z,100114.75
2023-02-23T04:39:48.555Z,100122.19
2023-02-23T04:49:50.728Z,100132.78
2023-02-23T04:59:52.849Z,100119.38
2023-02-23T05:09:55.181Z,100136.50
2023-02-23T05:19:57.346Z,100132.28
2023-02-23T05:29:59.742Z,100145.63
2023-02-23T05:40:01.936Z,100150.88
2023-02-23T05:50:10.085Z,100148.16
2023-02-23T06:00:13.545Z,100143.38
2023-02-23T06:10:16.070Z,100143.34
2023-02-23T06:20:18.370Z,100155.59
2023-02-23T06:30:20.645Z,100165.16
2023-02-23T06:40:23.017Z,100182.03
2023-02-23T06:50:25.660Z,100186.75
2023-02-23T07:00:27.767Z,100211.81
2023-02-23T07:10:31.209Z,100209.78
2023-02-23T07:20:33.953Z,100223.41
2023-02-23T07:30:36.279Z,100225.47
2023-02-23T07:40:38.825Z,100235.16
2023-02-23T07:50:41.832Z,100238.19
2023-02-23T08:00:43.999Z,100255.53
2023-02-23T08:10:49.954Z,100256.53
2023-02-23T08:21:00.660Z,100263.16
2023-02-23T08:31:02.926Z,100272.88
2023-02-23T08:41:05.943Z,100280.97
2023-02-23T08:51:08.903Z,100287.09
2023-02-23T09:01:20.044Z,100297.44
2023-02-23T09:11:23.626Z,100293.81
2023-02-23T09:21:26.356Z,100304.25
2023-02-23T09:31:28.851Z,100309.34
2023-02-23T09:41:43.561Z,100314.53
2023-02-23T09:51:51.723Z,100317.78
2023-02-23T10:02:15.564Z,100321.28
2023-02-23T10:12:23.787Z,100326.00
2023-02-23T10:22:26.649Z,100341.16
2023-02-23T10:32:42.234Z,100343.19
2023-02-23T10:42:44.848Z,100347.16
2023-02-23T10:52:48.881Z,100359.44
2023-02-23T11:02:51.233Z,100359.03
2023-02-23T11:12:53.485Z,100354.53
2023-02-23T11:23:03.618Z,100354.91
2023-02-23T11:33:16.257Z,100363.44
2023-02-23T11:43:18.566Z,100357.50
2023-02-23T11:53:31.617Z,100358.84
2023-02-23T12:03:34.525Z,100355.97
2023-02-23T12:13:42.449Z,100344.75
2023-02-23T12:23:48.864Z,100349.41
2023-02-23T12:33:57.462Z,100347.44
2023-02-23T12:44:15.212Z,100363.97
2023-02-23T12:54:17.608Z,100357.31
2023-02-23T13:04:41.765Z,100364.25
2023-02-23T13:15:02.148Z,100363.38
2023-02-23T13:25:18.567Z,100361.84
2023-02-23T13:35:21.939Z,100365.91
2023-02-23T13:45:31.483Z,100373.53
2023-02-23T13:55:48.687Z,100374.34
2023-02-23T14:05:56.896Z,100372.47
2023-02-23T14:16:19.634Z,100386.22
2023-02-23T14:26:27.838Z,100391.16
2023-02-23T14:36:35.970Z,100386.78
2023-02-23T14:46:38.435Z,100381.84
2023-02-23T14:56:46.982Z,100371.94
2023-02-23T15:06:52.877Z,100385.06
2023-02-23T15:16:56.224Z,100386.59
2023-02-23T15:26:58.467Z,100407.28
2023-02-23T15:37:04.789Z,100399.69
2023-02-23T15:47:19.325Z,100390.88
2023-02-23T15:57:29.347Z,100392.81
2023-02-23T16:07:43.276Z,100380.38
2023-02-23T16:17:48.445Z,100384.81
2023-02-23T16:28:08.942Z,100376.84
2023-02-23T16:38:15.167Z,100383.22
2023-02-23T16:48:18.597Z,100389.09
2023-02-23T16:58:23.401Z,100376.00
2023-02-23T17:08:26.359Z,100395.56
2023-02-23T17:18:31.387Z,100405.06
2023-02-23T17:28:33.811Z,100420.66
2023-02-23T17:38:36.111Z,100428.06
2023-02-23T17:48:40.520Z,100429.00
2023-02-23T17:58:43.052Z,100423.16
2023-02-23T18:08:46.297Z,100447.38
2023-02-23T18:18:49.233Z,100438.69
2023-02-23T18:28:51.881Z,100435.78
2023-02-23T18:38:55.685Z,100441.25
2023-02-23T18:48:58.118Z,100455.56
2023-02-23T18:59:01.885Z,100450.53
2023-02-23T19:09:07.809Z,100428.16
2023-02-23T19:19:10.651Z,100433.34
2023-02-23T19:29:13.015Z,100434.00
2023-02-23T19:39:16.137Z,100407.59
2023-02-23T19:49:18.903Z,100403.41
2023-02-23T19:59:21.566Z,100423.59
2023-02-23T20:09:23.946Z,100428.78
2023-02-23T20:19:26.443Z,100431.84
2023-02-23T20:29:29.495Z,100438.00
2023-02-23T20:39:31.858Z,100444.91
2023-02-23T20:49:34.173Z,100433.03
2023-02-23T20:59:36.814Z,100425.28
2023-02-23T21:09:40.840Z,100415.38
2023-02-23T21:19:43.819Z,100416.50
2023-02-23T21:29:46.033Z,100425.78
2023-02-23T21:39:51.242Z,100418.97
2023-02-23T21:49:54.317Z,100431.16
2023-02-23T21:59:56.748Z,100438.00
2023-02-23T22:09:59.081Z,100436.16
2023-02-23T22:20:01.426Z,100427.09
2023-02-23T22:30:05.058Z,100419.06
2023-02-23T22:40:12.295Z,100427.56
2023-02-23T22:50:18.332Z,100422.56
2023-02-23T23:00:20.741Z,100418.56
2023-02-23T23:10:23.622Z,100413.53
2023-02-23T23:20:25.966Z,100416.00
2023-02-23T23:30:29.390Z,100413.59
2023-02-23T23:40:35.659Z,100403.88
2023-02-23T23:50:39.662Z,100408.03
